createdAt,value
2019-02-09T00:00:23.145Z,96.50
2019-02-09T00:02:50.365Z,96.70
2019-02-09T00:05:16.576Z,96.70
2019-02-09T00:07:42.785Z,96.60
2019-02-09T00:10:09.006Z,96.60
2019-02-09T00:12:35.217Z,96.60
2019-02-09T00:15:01.428Z,96.60
2019-02-09T00:17:31.648Z,96.60
2019-02-09T00:19:57.861Z,96.80
2019-02-09T00:22:24.068Z,96.90
2019-02-09T00:24:50.293Z,96.80
2019-02-09T00:27:16.504Z,96.50
2019-02-09T00:29:46.377Z,96.30
2019-02-09T00:32:10.909Z,96.30
2019-02-09T00:34:37.125Z,96.10
2019-02-09T00:37:03.339Z,96.00
2019-02-09T00:39:29.574Z,96.00
2019-02-09T00:42:08.729Z,95.90
2019-02-09T00:44:34.985Z,96.10
2019-02-09T00:47:01.189Z,96.20
2019-02-09T00:49:27.408Z,96.10
2019-02-09T00:51:53.629Z,96.10
2019-02-09T00:54:19.844Z,96.10
2019-02-09T00:56:46.163Z,96.20
2019-02-09T00:59:12.395Z,96.40
2019-02-09T01:01:38.669Z,96.40
2019-02-09T01:04:04.873Z,96.40
2019-02-09T01:06:31.098Z,96.20
2019-02-09T01:08:57.305Z,96.40
2019-02-09T01:11:23.513Z,96.40
2019-02-09T01:13:49.749Z,96.40
2019-02-09T01:16:15.970Z,96.40
2019-02-09T01:18:42.297Z,96.50
2019-02-09T01:21:08.537Z,96.40
2019-02-09T01:23:34.749Z,96.40
2019-02-09T01:26:00.975Z,96.60
2019-02-09T01:28:27.207Z,96.10
2019-02-09T01:30:53.413Z,96.10
2019-02-09T01:33:19.700Z,95.80
2019-02-09T01:35:45.933Z,95.80
2019-02-09T01:38:12.144Z,95.80
2019-02-09T01:40:38.357Z,95.80
2019-02-09T01:43:04.595Z,96.00
2019-02-09T01:45:33.830Z,96.00
2019-02-09T01:48:00.144Z,96.10
2019-02-09T01:50:32.256Z,96.10
2019-02-09T01:52:58.460Z,96.00
2019-02-09T01:55:25.675Z,95.90
2019-02-09T01:57:51.888Z,96.00
2019-02-09T02:00:22.887Z,96.20
2019-02-09T02:02:49.393Z,96.30
2019-02-09T02:05:18.072Z,96.40
2019-02-09T02:07:44.281Z,96.60
2019-02-09T02:10:17.310Z,96.40
2019-02-09T02:12:43.568Z,96.40
2019-02-09T02:15:15.601Z,96.40
2019-02-09T02:17:41.813Z,96.50
2019-02-09T02:20:14.884Z,96.40
2019-02-09T02:22:41.100Z,96.20
2019-02-09T02:25:07.332Z,96.30
2019-02-09T02:27:33.669Z,96.30
2019-02-09T02:29:59.943Z,96.30
2019-02-09T02:32:26.156Z,96.50
2019-02-09T02:34:52.386Z,96.60
2019-02-09T02:37:18.660Z,96.90
2019-02-09T02:39:44.880Z,96.60
2019-02-09T02:42:11.122Z,96.40
2019-02-09T02:44:37.332Z,96.10
2019-02-09T02:47:03.564Z,96.20
2019-02-09T02:49:29.788Z,96.30
2019-02-09T02:51:56.113Z,96.20
2019-02-09T02:54:22.421Z,96.40
2019-02-09T02:56:48.652Z,96.10
2019-02-09T02:59:14.857Z,96.00
2019-02-09T03:01:41.077Z,96.10
2019-02-09T03:04:07.296Z,96.20
2019-02-09T03:06:33.508Z,96.50
2019-02-09T03:08:59.792Z,96.40
2019-02-09T03:11:26.010Z,96.50
2019-02-09T03:13:52.223Z,96.20
2019-02-09T03:16:18.533Z,96.10
2019-02-09T03:18:44.793Z,95.90
2019-02-09T03:21:11.116Z,96.00
2019-02-09T03:23:37.329Z,95.90
2019-02-09T03:26:03.565Z,95.90
2019-02-09T03:28:29.773Z,96.00
2019-02-09T03:30:55.982Z,96.30
2019-02-09T03:33:22.207Z,96.50
2019-02-09T03:35:48.509Z,96.70
2019-02-09T03:38:14.719Z,96.90
2019-02-09T03:40:40.998Z,97.00
2019-02-09T03:43:07.209Z,97.00
2019-02-09T03:45:33.420Z,97.10
2019-02-09T03:47:59.842Z,97.10
2019-02-09T03:50:27.850Z,97.10
2019-02-09T03:52:54.062Z,97.00
2019-02-09T03:55:20.285Z,96.80
2019-02-09T03:57:46.545Z,96.80
2019-02-09T04:00:15.112Z,96.60
2019-02-09T04:02:41.347Z,96.40
2019-02-09T04:05:09.754Z,96.40
2019-02-09T04:07:35.969Z,96.40
2019-02-09T04:10:05.105Z,96.60
2019-02-09T04:12:31.489Z,96.70
2019-02-09T04:14:57.805Z,96.80
2019-02-09T04:17:24.135Z,96.60
2019-02-09T04:19:50.341Z,96.80
2019-02-09T04:22:16.582Z,97.00
2019-02-09T04:24:42.808Z,96.90
2019-02-09T04:27:09.119Z,96.80
2019-02-09T04:29:35.330Z,96.90
2019-02-09T04:32:01.550Z,96.70
2019-02-09T04:34:27.756Z,96.70
2019-02-09T04:36:54.068Z,96.90
2019-02-09T04:39:21.846Z,97.10
2019-02-09T04:41:48.210Z,97.10
2019-02-09T04:44:14.481Z,97.20
2019-02-09T04:46:40.745Z,97.20
2019-02-09T04:49:08.153Z,97.10
2019-02-09T04:51:34.364Z,97.40
2019-02-09T04:54:00.700Z,97.30
2019-02-09T04:56:27.004Z,97.30
2019-02-09T04:58:53.214Z,97.10
2019-02-09T05:01:19.444Z,97.20
2019-02-09T05:03:45.651Z,97.00
2019-02-09T05:06:11.860Z,96.90
2019-02-09T05:08:38.096Z,97.00
2019-02-09T05:11:07.668Z,97.20
2019-02-09T05:13:33.874Z,97.00
2019-02-09T05:16:00.285Z,96.80
2019-02-09T05:18:26.501Z,96.60
2019-02-09T05:20:52.731Z,96.60
2019-02-09T05:23:19.041Z,96.70
2019-02-09T05:25:45.253Z,96.90
2019-02-09T05:28:11.452Z,96.90
2019-02-09T05:30:37.679Z,97.00
2019-02-09T05:33:03.989Z,97.00
2019-02-09T05:35:30.198Z,97.00
2019-02-09T05:37:56.417Z,96.90
2019-02-09T05:40:24.322Z,96.80
2019-02-09T05:42:50.541Z,96.80
2019-02-09T05:45:22.096Z,96.80
2019-02-09T05:47:48.385Z,97.00
2019-02-09T05:50:18.666Z,96.80
2019-02-09T05:52:46.002Z,96.40
2019-02-09T05:55:12.404Z,96.00
2019-02-09T05:57:38.731Z,95.90
2019-02-09T06:00:11.701Z,96.00
2019-02-09T06:02:38.504Z,96.00
2019-02-09T06:05:07.429Z,96.40
2019-02-09T06:07:33.656Z,96.80
2019-02-09T06:09:59.861Z,96.60
2019-02-09T06:12:26.077Z,96.50
2019-02-09T06:14:52.296Z,96.60
2019-02-09T06:17:18.508Z,96.70
2019-02-09T06:19:44.790Z,96.70
2019-02-09T06:22:11.014Z,96.90
2019-02-09T06:24:37.281Z,96.90
2019-02-09T06:27:03.503Z,96.80
2019-02-09T06:29:29.828Z,96.80
2019-02-09T06:31:56.035Z,96.70
2019-02-09T06:34:22.340Z,96.50
2019-02-09T06:36:48.575Z,96.30
2019-02-09T06:39:14.789Z,96.30
2019-02-09T06:41:41.001Z,96.40
2019-02-09T06:44:07.224Z,96.40
2019-02-09T06:46:33.439Z,96.30
2019-02-09T06:48:59.745Z,96.30
2019-02-09T06:51:26.040Z,96.20
2019-02-09T06:53:52.253Z,96.30
2019-02-09T06:56:18.469Z,96.40
2019-02-09T06:58:44.697Z,96.70
2019-02-09T07:01:10.905Z,96.60
2019-02-09T07:03:37.112Z,96.70
2019-02-09T07:06:03.336Z,96.60
2019-02-09T07:08:29.541Z,96.50
2019-02-09T07:10:55.753Z,96.50
2019-02-09T07:13:21.969Z,96.30
2019-02-09T07:15:48.168Z,96.40
2019-02-09T07:18:14.378Z,96.40
2019-02-09T07:20:40.607Z,96.30
2019-02-09T07:23:06.876Z,96.30
2019-02-09T07:25:33.129Z,96.10
2019-02-09T07:27:59.359Z,96.20
2019-02-09T07:30:33.268Z,96.30
2019-02-09T07:32:59.497Z,96.40
2019-02-09T07:35:25.809Z,96.50
2019-02-09T07:37:52.025Z,96.60
2019-02-09T07:40:22.808Z,96.70
2019-02-09T07:42:49.025Z,96.70
2019-02-09T07:45:20.105Z,96.70
2019-02-09T07:47:47.440Z,96.70
2019-02-09T07:50:15.651Z,96.70
2019-02-09T07:52:41.828Z,96.70
2019-02-09T07:55:13.557Z,96.60
2019-02-09T07:57:39.765Z,96.40
2019-02-09T08:00:12.409Z,96.30
2019-02-09T08:02:38.633Z,96.20
2019-02-09T08:05:06.653Z,96.10
2019-02-09T08:07:32.953Z,95.90
2019-02-09T08:09:59.175Z,95.70
2019-02-09T08:12:25.376Z,95.60
2019-02-09T08:14:51.585Z,95.60
2019-02-09T08:17:17.829Z,95.60
2019-02-09T08:19:44.033Z,95.60
2019-02-09T08:22:10.238Z,95.50
2019-02-09T08:24:36.460Z,95.40
2019-02-09T08:27:02.779Z,95.30
2019-02-09T08:29:29.095Z,95.00
2019-02-09T08:31:55.381Z,94.50
2019-02-09T08:34:21.636Z,94.40
2019-02-09T08:36:47.904Z,94.30
2019-02-09T08:39:14.148Z,94.40
2019-02-09T08:41:40.349Z,94.80
2019-02-09T08:44:06.569Z,94.80
2019-02-09T08:46:32.788Z,94.80
2019-02-09T08:48:59.009Z,94.80
2019-02-09T08:51:25.221Z,94.60
2019-02-09T08:53:51.441Z,94.60
2019-02-09T08:56:17.645Z,94.60
2019-02-09T08:58:43.933Z,94.50
2019-02-09T09:01:10.168Z,94.70
2019-02-09T09:03:36.389Z,94.60
2019-02-09T09:06:02.601Z,94.50
2019-02-09T09:08:28.829Z,94.30
2019-02-09T09:10:55.032Z,94.60
2019-02-09T09:13:22.256Z,94.70
2019-02-09T09:15:51.676Z,94.70
2019-02-09T09:18:17.901Z,95.20
2019-02-09T09:20:47.241Z,94.90
2019-02-09T09:23:13.530Z,94.70
2019-02-09T09:25:39.816Z,94.30
2019-02-09T09:28:07.131Z,93.80
2019-02-09T09:30:33.524Z,93.30
2019-02-09T09:32:59.724Z,92.80
2019-02-09T09:35:25.938Z,92.60
2019-02-09T09:37:52.760Z,92.40
2019-02-09T09:40:22.069Z,92.10
2019-02-09T09:42:48.276Z,91.80
2019-02-09T09:45:20.101Z,91.60
2019-02-09T09:47:46.317Z,91.30
2019-02-09T09:50:15.640Z,91.00
2019-02-09T09:52:41.887Z,91.00
2019-02-09T09:55:09.101Z,91.20
2019-02-09T09:57:35.328Z,91.70
2019-02-09T10:00:04.840Z,91.80
2019-02-09T10:02:36.414Z,91.70
2019-02-09T10:05:00.330Z,91.90
2019-02-09T10:07:26.593Z,92.00
2019-02-09T10:09:53.869Z,92.60
2019-02-09T10:12:20.229Z,92.50
2019-02-09T10:14:46.461Z,92.90
2019-02-09T10:17:12.672Z,93.00
2019-02-09T10:19:38.886Z,93.80
2019-02-09T10:22:06.137Z,94.00
2019-02-09T10:24:32.353Z,93.90
2019-02-09T10:26:58.565Z,93.70
2019-02-09T10:29:24.915Z,93.60
2019-02-09T10:31:51.119Z,93.80
2019-02-09T10:34:17.392Z,93.60
2019-02-09T10:36:43.636Z,93.90
2019-02-09T10:39:09.849Z,94.20
2019-02-09T10:41:36.162Z,94.40
2019-02-09T10:44:02.400Z,94.50
2019-02-09T10:46:28.609Z,94.40
2019-02-09T10:48:54.825Z,94.40
2019-02-09T10:51:21.057Z,94.10
2019-02-09T10:53:47.260Z,94.20
2019-02-09T10:56:13.480Z,94.00
2019-02-09T10:58:39.697Z,93.80
2019-02-09T11:01:09.512Z,93.60
2019-02-09T11:03:35.720Z,93.40
2019-02-09T11:06:03.010Z,93.40
2019-02-09T11:08:29.212Z,93.60
2019-02-09T11:10:55.829Z,93.50
2019-02-09T11:13:22.052Z,93.50
2019-02-09T11:15:48.260Z,93.40
2019-02-09T11:18:14.468Z,93.40
2019-02-09T11:20:40.909Z,93.30
2019-02-09T11:23:07.115Z,93.20
2019-02-09T11:25:33.344Z,93.20
2019-02-09T11:27:59.560Z,93.10
2019-02-09T11:30:26.778Z,93.10
2019-02-09T11:33:01.663Z,93.10
2019-02-09T11:35:21.284Z,92.80
2019-02-09T11:37:47.556Z,92.70
2019-02-09T11:40:15.874Z,92.60
2019-02-09T11:42:42.201Z,92.60
2019-02-09T11:45:17.764Z,92.60
2019-02-09T11:47:44.005Z,92.80
2019-02-09T11:50:12.421Z,92.70
2019-02-09T11:52:38.643Z,92.70
2019-02-09T11:55:07.260Z,92.70
2019-02-09T11:57:33.468Z,92.60
2019-02-09T11:59:59.678Z,92.50
2019-02-09T12:02:25.917Z,92.50
2019-02-09T12:04:52.126Z,92.40
2019-02-09T12:07:18.333Z,92.40
2019-02-09T12:09:44.619Z,92.30
2019-02-09T12:12:10.829Z,92.10
2019-02-09T12:14:37.033Z,91.60
2019-02-09T12:17:03.353Z,91.50
2019-02-09T12:19:29.560Z,91.10
2019-02-09T12:21:55.773Z,91.20
2019-02-09T12:24:22.041Z,91.00
2019-02-09T12:26:48.249Z,90.70
2019-02-09T12:29:14.464Z,90.90
2019-02-09T12:31:41.081Z,91.20
2019-02-09T12:34:07.291Z,91.30
2019-02-09T12:36:33.500Z,91.30
2019-02-09T12:38:59.725Z,91.30
2019-02-09T12:41:26.001Z,91.30
2019-02-09T12:43:52.209Z,90.80
2019-02-09T12:46:18.436Z,90.90
2019-02-09T12:48:44.649Z,91.00
2019-02-09T12:51:10.864Z,90.90
2019-02-09T12:53:37.076Z,90.70
2019-02-09T12:56:03.281Z,90.50
2019-02-09T12:58:29.489Z,90.30
2019-02-09T13:00:55.716Z,90.10
2019-02-09T13:03:30.907Z,90.30
2019-02-09T13:05:51.949Z,90.40
2019-02-09T13:08:18.172Z,90.40
2019-02-09T13:10:44.369Z,90.20
2019-02-09T13:13:10.653Z,89.90
2019-02-09T13:15:36.969Z,89.30
2019-02-09T13:18:03.286Z,89.30
2019-02-09T13:20:30.798Z,89.70
2019-02-09T13:22:57.116Z,89.80
2019-02-09T13:25:23.353Z,89.10
2019-02-09T13:27:49.557Z,88.80
2019-02-09T13:30:22.044Z,89.00
2019-02-09T13:32:48.341Z,88.80
2019-02-09T13:35:15.058Z,88.50
2019-02-09T13:37:41.273Z,88.90
2019-02-09T13:40:12.289Z,89.20
2019-02-09T13:42:38.505Z,89.10
2019-02-09T13:45:11.526Z,89.30
2019-02-09T13:47:37.730Z,89.10
2019-02-09T13:50:07.757Z,89.00
2019-02-09T13:52:33.982Z,88.80
2019-02-09T13:55:00.288Z,89.00
2019-02-09T13:57:26.597Z,89.60
2019-02-09T13:59:52.818Z,90.00
2019-02-09T14:02:19.029Z,90.30
2019-02-09T14:04:45.244Z,90.70
2019-02-09T14:07:11.468Z,90.90
2019-02-09T14:09:37.677Z,91.20
2019-02-09T14:12:03.894Z,91.20
2019-02-09T14:14:30.117Z,91.40
2019-02-09T14:16:56.409Z,91.40
2019-02-09T14:19:22.632Z,91.50
2019-02-09T14:21:48.967Z,91.30
2019-02-09T14:24:15.285Z,91.30
2019-02-09T14:26:41.632Z,91.30
2019-02-09T14:29:07.848Z,91.40
2019-02-09T14:31:34.061Z,91.50
2019-02-09T14:34:00.341Z,91.50
2019-02-09T14:36:26.568Z,91.60
2019-02-09T14:38:52.785Z,91.90
2019-02-09T14:41:19.008Z,92.30
2019-02-09T14:43:45.247Z,92.20
2019-02-09T14:46:11.757Z,92.10
2019-02-09T14:48:38.039Z,92.30
2019-02-09T14:51:04.265Z,92.20
2019-02-09T14:53:30.476Z,92.40
2019-02-09T14:55:56.698Z,92.50
2019-02-09T14:58:22.920Z,92.40
2019-02-09T15:00:51.740Z,92.30
2019-02-09T15:03:25.689Z,92.10
2019-02-09T15:05:46.082Z,92.20
2019-02-09T15:08:12.288Z,92.50
2019-02-09T15:10:38.500Z,92.50
2019-02-09T15:13:06.238Z,92.50
2019-02-09T15:15:41.760Z,92.40
2019-02-09T15:18:09.622Z,92.20
2019-02-09T15:20:52.164Z,92.00
2019-02-09T15:23:18.390Z,92.00
2019-02-09T15:25:44.708Z,92.20
2019-02-09T15:28:12.549Z,92.20
2019-02-09T15:30:39.231Z,92.20
2019-02-09T15:33:05.439Z,92.30
2019-02-09T15:35:31.762Z,92.40
2019-02-09T15:37:58.006Z,92.40
2019-02-09T15:40:24.279Z,92.60
2019-02-09T15:42:50.593Z,92.70
2019-02-09T15:45:21.308Z,92.80
2019-02-09T15:47:47.529Z,92.80
2019-02-09T15:50:15.459Z,93.20
2019-02-09T15:52:41.781Z,93.00
2019-02-09T15:55:13.522Z,93.10
2019-02-09T15:57:39.850Z,93.30
2019-02-09T16:00:17.910Z,93.30
2019-02-09T16:02:44.198Z,93.40
2019-02-09T16:05:11.823Z,93.50
2019-02-09T16:07:38.165Z,93.90
2019-02-09T16:10:09.773Z,93.90
2019-02-09T16:12:36.000Z,93.90
2019-02-09T16:15:08.084Z,93.70
2019-02-09T16:17:34.304Z,93.70
2019-02-09T16:20:00.512Z,93.80
2019-02-09T16:22:26.732Z,94.10
2019-02-09T16:24:53.059Z,93.90
2019-02-09T16:27:19.377Z,93.50
2019-02-09T16:29:46.393Z,93.40
2019-02-09T16:32:12.605Z,93.40
2019-02-09T16:34:38.828Z,93.30
2019-02-09T16:37:05.163Z,93.40
2019-02-09T16:39:31.390Z,93.50
2019-02-09T16:41:57.609Z,93.40
2019-02-09T16:44:23.837Z,93.80
2019-02-09T16:46:50.056Z,93.60
2019-02-09T16:49:16.282Z,93.70
2019-02-09T16:51:42.512Z,93.70
2019-02-09T16:54:09.729Z,94.00
2019-02-09T16:56:36.040Z,93.70
2019-02-09T16:59:02.337Z,93.60
2019-02-09T17:01:28.549Z,93.80
2019-02-09T17:03:55.557Z,93.90
2019-02-09T17:06:23.065Z,94.00
2019-02-09T17:08:49.501Z,93.80
2019-02-09T17:11:15.717Z,93.70
2019-02-09T17:13:41.952Z,93.90
2019-02-09T17:16:08.173Z,93.90
2019-02-09T17:18:35.390Z,94.10
2019-02-09T17:21:01.613Z,94.10
2019-02-09T17:23:27.825Z,94.10
2019-02-09T17:25:54.044Z,94.20
2019-02-09T17:28:20.374Z,94.20
2019-02-09T17:30:46.621Z,94.30
2019-02-09T17:33:12.828Z,94.10
2019-02-09T17:35:39.163Z,94.00
2019-02-09T17:38:06.542Z,93.90
2019-02-09T17:40:36.829Z,93.80
2019-02-09T17:43:04.153Z,93.70
2019-02-09T17:45:46.308Z,93.60
2019-02-09T17:48:12.536Z,93.60
2019-02-09T17:50:38.745Z,93.60
2019-02-09T17:53:04.961Z,93.60
2019-02-09T17:55:31.192Z,93.90
2019-02-09T17:57:57.401Z,94.10
2019-02-09T18:00:26.386Z,94.40
2019-02-09T18:02:52.720Z,94.60
2019-02-09T18:05:18.937Z,94.70
2019-02-09T18:07:46.148Z,94.90
2019-02-09T18:10:16.669Z,95.00
2019-02-09T18:12:42.877Z,95.00
2019-02-09T18:15:11.893Z,95.10
2019-02-09T18:17:38.113Z,95.20
2019-02-09T18:20:07.526Z,95.20
2019-02-09T18:22:33.844Z,95.30
2019-02-09T18:25:00.202Z,95.40
2019-02-09T18:27:26.476Z,95.50
2019-02-09T18:29:52.691Z,95.60
2019-02-09T18:32:19.021Z,95.70
2019-02-09T18:34:45.241Z,95.70
2019-02-09T18:37:11.581Z,95.80
2019-02-09T18:39:37.912Z,95.80
2019-02-09T18:42:04.121Z,95.80
2019-02-09T18:44:30.353Z,95.90
2019-02-09T18:46:56.580Z,95.80
2019-02-09T18:49:22.789Z,95.80
2019-02-09T18:51:49.000Z,96.00
2019-02-09T18:54:15.241Z,96.00
2019-02-09T18:56:41.478Z,96.00
2019-02-09T18:59:07.809Z,95.90
2019-02-09T19:01:34.041Z,95.90
2019-02-09T19:04:00.340Z,95.80
2019-02-09T19:06:26.665Z,95.90
2019-02-09T19:08:53.000Z,95.80
2019-02-09T19:11:19.225Z,95.80
2019-02-09T19:13:45.466Z,95.80
2019-02-09T19:16:11.838Z,95.90
2019-02-09T19:18:38.059Z,95.90
2019-02-09T19:21:06.571Z,95.90
2019-02-09T19:23:32.805Z,95.90
2019-02-09T19:25:59.025Z,96.00
2019-02-09T19:28:25.260Z,96.00
2019-02-09T19:30:51.601Z,96.00
2019-02-09T19:33:18.124Z,96.00
2019-02-09T19:35:44.452Z,95.90
2019-02-09T19:38:10.765Z,95.90
2019-02-09T19:40:36.985Z,96.00
2019-02-09T19:43:04.313Z,95.80
2019-02-09T19:45:37.973Z,95.70
2019-02-09T19:48:05.321Z,95.70
2019-02-09T19:50:31.553Z,95.90
2019-02-09T19:52:57.877Z,95.90
2019-02-09T19:55:26.197Z,95.80
2019-02-09T19:57:52.386Z,95.70
2019-02-09T20:00:24.074Z,95.70
2019-02-09T20:02:50.308Z,95.60
2019-02-09T20:05:19.866Z,95.60
2019-02-09T20:07:44.863Z,95.50
2019-02-09T20:10:22.957Z,95.50
2019-02-09T20:12:49.260Z,95.60
2019-02-09T20:15:15.479Z,95.70
2019-02-09T20:17:41.801Z,95.70
2019-02-09T20:20:12.618Z,95.80
2019-02-09T20:22:38.878Z,95.80
2019-02-09T20:25:11.804Z,95.70
2019-02-09T20:27:38.024Z,95.70
2019-02-09T20:30:14.765Z,95.50
2019-02-09T20:32:40.972Z,95.60
2019-02-09T20:35:13.842Z,95.60
2019-02-09T20:37:40.242Z,95.60
2019-02-09T20:40:27.093Z,95.40
2019-02-09T20:43:01.551Z,95.50
2019-02-09T20:45:22.554Z,95.50
2019-02-09T20:47:50.199Z,95.40
2019-02-09T20:50:17.311Z,95.30
2019-02-09T20:52:43.533Z,95.30
2019-02-09T20:55:11.602Z,95.40
2019-02-09T20:57:37.856Z,95.30
2019-02-09T21:00:07.884Z,95.40
2019-02-09T21:02:34.120Z,95.50
2019-02-09T21:05:00.794Z,95.60
2019-02-09T21:07:27.380Z,95.70
2019-02-09T21:09:53.701Z,95.60
2019-02-09T21:12:20.129Z,95.60
2019-02-09T21:14:46.457Z,95.60
2019-02-09T21:17:12.686Z,95.70
2019-02-09T21:19:38.926Z,95.60
2019-02-09T21:22:05.255Z,95.60
2019-02-09T21:24:31.491Z,95.70
2019-02-09T21:26:57.736Z,95.60
2019-02-09T21:29:23.965Z,95.60
2019-02-09T21:31:50.198Z,95.60
2019-02-09T21:34:16.425Z,95.60
2019-02-09T21:36:42.666Z,95.60
2019-02-09T21:39:09.006Z,95.50
2019-02-09T21:41:36.259Z,95.50
2019-02-09T21:44:02.621Z,95.40
2019-02-09T21:46:28.866Z,95.40
2019-02-09T21:48:55.122Z,95.50
2019-02-09T21:51:21.429Z,95.60
2019-02-09T21:53:47.669Z,95.60
2019-02-09T21:56:13.913Z,95.60
2019-02-09T21:58:40.142Z,95.60
2019-02-09T22:01:06.366Z,95.50
2019-02-09T22:03:32.611Z,95.50
2019-02-09T22:05:58.939Z,95.60
2019-02-09T22:08:25.153Z,95.80
2019-02-09T22:10:51.401Z,95.80
2019-02-09T22:13:17.640Z,95.60
2019-02-09T22:15:43.986Z,95.50
2019-02-09T22:18:10.288Z,95.40
2019-02-09T22:20:36.564Z,95.50
2019-02-09T22:23:03.362Z,95.40
2019-02-09T22:25:30.612Z,95.40
2019-02-09T22:27:56.842Z,95.30
2019-02-09T22:30:30.477Z,95.20
2019-02-09T22:32:57.201Z,95.20
2019-02-09T22:35:23.669Z,95.20
2019-02-09T22:37:53.841Z,95.20
2019-02-09T22:40:23.990Z,95.20
2019-02-09T22:42:50.225Z,95.20
2019-02-09T22:45:19.035Z,95.00
2019-02-09T22:47:45.429Z,94.90
2019-02-09T22:50:26.444Z,94.90
2019-02-09T22:52:52.681Z,94.90
2019-02-09T22:55:20.509Z,95.00
2019-02-09T22:57:46.733Z,95.10
2019-02-09T23:00:50.383Z,95.30
2019-02-09T23:03:16.610Z,95.40
2019-02-09T23:06:10.925Z,95.40
2019-02-09T23:08:37.152Z,95.50
2019-02-09T23:11:03.473Z,95.40
2019-02-09T23:13:29.708Z,95.30
2019-02-09T23:15:55.932Z,95.30
2019-02-09T23:18:22.221Z,95.20
2019-02-09T23:20:48.477Z,95.30
2019-02-09T23:23:14.684Z,95.40
2019-02-09T23:25:40.901Z,95.50
2019-02-09T23:28:07.229Z,95.60
2019-02-09T23:30:33.529Z,95.70
2019-02-09T23:32:59.752Z,95.70
2019-02-09T23:35:25.989Z,95.60
2019-02-09T23:37:52.274Z,95.60
2019-02-09T23:40:18.529Z,95.60
2019-02-09T23:42:44.773Z,95.30
2019-02-09T23:45:10.981Z,95.70
2019-02-09T23:47:37.212Z,95.70
2019-02-09T23:50:04.717Z,95.60
2019-02-09T23:52:30.981Z,95.70
2019-02-09T23:54:57.269Z,95.70
2019-02-09T23:57:23.495Z,95.70
2019-02-09T23:59:49.717Z,95.60
